If you wish to contribute or participate in the discussions about articles you are invited to join SKYbrary as a registered user

 Actions

Ondangwa

From SKYbrary Wiki

FYOA
Airport
ICAO: FYOA – IATA: OND
Summary
Name Ondangwa
Region Africa
Territory Namibia NA.gif
Location Ondangwa, Oshana Region
Serving Ondangwa
Elevation 1,096.975 m
3,599 ft
3,599 ft1,096.975 m
Coordinates 17° 52' 50.00" S, 15° 56' 51.00" E
Runways
Designator Length Width Surface ROPS
8/26 2987 m9,799.869 ft
30 m98.425 ft
ASP /
16/34 1348 m4,422.572 ft
30 m98.425 ft
GVL /


METAR
Observation FYOA 192100Z AUTO 31003KT //// // ////// 27/01 Q1012
Station Ondangwa
Date/Time 19 November 2019 21:00:00
Wind direction 310°
Wind speed 03 kts
Lowest cloud amount n/a
Temperature 27°C
Dew point 1°C
Humidity 18%
QNH 1012 hPa
Weather condition n/a

Ondangwa Airport

ICAO: FYOA IATA: OND

Description

International airport serving northern Namibia.

Climatology

Hot, semi-arid/Steppe climate (Köppen climate classification BSh) - hot, sometimes extremely hot summers and mild to warm winters, with low annual precipitation.

Maps

Terrain

Loading map...

Airport Layout

Loading map...


  • Exercise caution due to free movement of people and animals on the manoeuvering area.

Accidents & Serious Incidents at or in vicinity of FYOA

None on SKYbrary

Forum

See discussion threads concerning this airport on the SKYbrary Before you Fly There... Forum: